sensor_id;sensor_type;location;lat;lon;timestamp;pressure;altitude;pressure_sealevel;temperature;humidity
55675;BME280;41562;44.330;23.802;2023-07-02T00:02:21;99361.56;;;21.32;100.00
55675;BME280;41562;44.330;23.802;2023-07-02T00:04:49;99354.66;;;21.38;100.00
55675;BME280;41562;44.330;23.802;2023-07-02T00:07:16;99360.47;;;21.36;100.00
55675;BME280;41562;44.330;23.802;2023-07-02T00:13:31;99353.13;;;21.37;100.00
55675;BME280;41562;44.330;23.802;2023-07-02T00:19:46;99354.13;;;21.29;100.00
55675;BME280;41562;44.330;23.802;2023-07-02T00:22:14;99348.28;;;21.26;100.00
55675;BME280;41562;44.330;23.802;2023-07-02T00:24:41;99353.00;;;21.30;100.00
55675;BME280;41562;44.330;23.802;2023-07-02T00:30:40;99339.28;;;21.22;100.00
55675;BME280;41562;44.330;23.802;2023-07-02T00:33:08;99337.91;;;21.13;100.00
55675;BME280;41562;44.330;23.802;2023-07-02T00:35:35;99327.81;;;21.13;100.00
55675;BME280;41562;44.330;23.802;2023-07-02T00:38:03;99338.13;;;21.23;100.00
55675;BME280;41562;44.330;23.802;2023-07-02T00:44:23;99337.13;;;21.12;100.00
55675;BME280;41562;44.330;23.802;2023-07-02T00:50:50;99325.25;;;21.20;100.00
55675;BME280;41562;44.330;23.802;2023-07-02T00:53:19;99324.56;;;21.04;100.00
55675;BME280;41562;44.330;23.802;2023-07-02T00:55:47;99320.94;;;20.97;100.00
55675;BME280;41562;44.330;23.802;2023-07-02T00:58:14;99323.44;;;21.05;100.00
55675;BME280;41562;44.330;23.802;2023-07-02T01:00:42;99317.50;;;21.00;100.00
55675;BME280;41562;44.330;23.802;2023-07-02T01:03:11;99326.19;;;21.09;100.00
55675;BME280;41562;44.330;23.802;2023-07-02T01:05:52;99326.56;;;21.07;100.00
55675;BME280;41562;44.330;23.802;2023-07-02T01:08:19;99334.22;;;21.02;100.00
55675;BME280;41562;44.330;23.802;2023-07-02T01:10:47;99328.00;;;21.01;100.00
55675;BME280;41562;44.330;23.802;2023-07-02T01:13:17;99328.31;;;20.96;100.00
55675;BME280;41562;44.330;23.802;2023-07-02T01:15:45;99324.03;;;20.95;100.00
55675;BME280;41562;44.330;23.802;2023-07-02T01:18:14;99321.06;;;21.04;100.00
55675;BME280;41562;44.330;23.802;2023-07-02T01:20:42;99316.66;;;20.96;100.00
55675;BME280;41562;44.330;23.802;2023-07-02T01:23:10;99313.56;;;20.97;100.00
55675;BME280;41562;44.330;23.802;2023-07-02T01:29:24;99302.47;;;20.83;100.00
55675;BME280;41562;44.330;23.802;2023-07-02T01:35:38;99310.06;;;20.97;100.00
55675;BME280;41562;44.330;23.802;2023-07-02T01:45:41;99314.63;;;20.70;100.00
55675;BME280;41562;44.330;23.802;2023-07-02T01:48:09;99308.97;;;20.78;100.00
55675;BME280;41562;44.330;23.802;2023-07-02T01:50:37;99307.28;;;20.70;100.00
55675;BME280;41562;44.330;23.802;2023-07-02T01:53:04;99318.59;;;20.72;100.00
55675;BME280;41562;44.330;23.802;2023-07-02T01:59:25;99302.06;;;20.62;100.00
55675;BME280;41562;44.330;23.802;2023-07-02T02:05:33;99285.38;;;20.60;100.00
55675;BME280;41562;44.330;23.802;2023-07-02T02:08:00;99280.22;;;20.55;100.00
55675;BME280;41562;44.330;23.802;2023-07-02T02:10:27;99288.47;;;20.39;100.00
55675;BME280;41562;44.330;23.802;2023-07-02T02:12:57;99287.75;;;20.42;100.00
55675;BME280;41562;44.330;23.802;2023-07-02T02:19:07;99277.44;;;20.32;100.00
55675;BME280;41562;44.330;23.802;2023-07-02T02:21:37;99285.13;;;20.30;100.00
55675;BME280;41562;44.330;23.802;2023-07-02T02:24:05;99273.38;;;20.22;100.00
55675;BME280;41562;44.330;23.802;2023-07-02T02:26:34;99272.50;;;20.18;100.00
55675;BME280;41562;44.330;23.802;2023-07-02T02:39:32;99297.38;;;20.20;100.00
55675;BME280;41562;44.330;23.802;2023-07-02T02:41:59;99293.22;;;20.07;100.00
55675;BME280;41562;44.330;23.802;2023-07-02T02:44:27;99294.81;;;20.08;100.00
55675;BME280;41562;44.330;23.802;2023-07-02T02:50:41;99304.69;;;20.16;100.00
55675;BME280;41562;44.330;23.802;2023-07-02T02:53:10;99301.81;;;20.09;100.00
55675;BME280;41562;44.330;23.802;2023-07-02T02:55:37;99299.16;;;20.13;100.00
55675;BME280;41562;44.330;23.802;2023-07-02T02:58:05;99300.72;;;20.14;100.00
55675;BME280;41562;44.330;23.802;2023-07-02T03:01:04;99304.22;;;20.14;100.00
55675;BME280;41562;44.330;23.802;2023-07-02T03:03:31;99309.50;;;20.07;100.00
55675;BME280;41562;44.330;23.802;2023-07-02T03:06:02;99311.09;;;20.08;100.00
55675;BME280;41562;44.330;23.802;2023-07-02T03:08:29;99318.16;;;20.13;100.00
55675;BME280;41562;44.330;23.802;2023-07-02T03:10:56;99315.78;;;20.11;100.00
55675;BME280;41562;44.330;23.802;2023-07-02T03:13:27;99315.94;;;19.99;100.00
55675;BME280;41562;44.330;23.802;2023-07-02T03:19:41;99309.50;;;20.07;100.00
55675;BME280;41562;44.330;23.802;2023-07-02T03:22:08;99316.66;;;20.15;100.00
55675;BME280;41562;44.330;23.802;2023-07-02T03:24:36;99317.16;;;20.21;100.00
55675;BME280;41562;44.330;23.802;2023-07-02T03:27:03;99316.22;;;20.13;100.00
55675;BME280;41562;44.330;23.802;2023-07-02T03:29:31;99315.03;;;20.11;100.00
55675;BME280;41562;44.330;23.802;2023-07-02T03:32:01;99314.94;;;20.07;100.00
55675;BME280;41562;44.330;23.802;2023-07-02T03:34:29;99303.94;;;20.00;100.00
55675;BME280;41562;44.330;23.802;2023-07-02T03:36:57;99311.22;;;20.73;100.00
55675;BME280;41562;44.330;23.802;2023-07-02T03:39:38;99315.63;;;21.26;100.00
55675;BME280;41562;44.330;23.802;2023-07-02T03:50:25;99322.59;;;21.50;100.00
55675;BME280;41562;44.330;23.802;2023-07-02T03:53:21;99318.72;;;21.78;100.00
55675;BME280;41562;44.330;23.802;2023-07-02T03:55:58;99323.75;;;21.76;100.00
55675;BME280;41562;44.330;23.802;2023-07-02T03:58:36;99321.53;;;21.55;100.00
55675;BME280;41562;44.330;23.802;2023-07-02T04:01:24;99326.31;;;21.65;100.00
55675;BME280;41562;44.330;23.802;2023-07-02T04:03:52;99315.06;;;21.93;100.00
55675;BME280;41562;44.330;23.802;2023-07-02T04:06:20;99324.31;;;21.88;100.00
55675;BME280;41562;44.330;23.802;2023-07-02T04:08:48;99319.41;;;21.97;100.00
55675;BME280;41562;44.330;23.802;2023-07-02T04:11:16;99328.59;;;22.49;100.00
55675;BME280;41562;44.330;23.802;2023-07-02T04:13:45;99313.75;;;22.80;100.00
55675;BME280;41562;44.330;23.802;2023-07-02T04:16:14;99316.06;;;23.22;100.00
55675;BME280;41562;44.330;23.802;2023-07-02T04:18:43;99316.84;;;23.22;100.00
55675;BME280;41562;44.330;23.802;2023-07-02T04:21:11;99323.75;;;22.69;100.00
55675;BME280;41562;44.330;23.802;2023-07-02T04:23:38;99324.34;;;22.52;100.00
55675;BME280;41562;44.330;23.802;2023-07-02T04:26:06;99321.09;;;22.72;100.00
55675;BME280;41562;44.330;23.802;2023-07-02T04:28:54;99327.53;;;22.57;100.00
55675;BME280;41562;44.330;23.802;2023-07-02T04:31:21;99314.31;;;22.59;100.00
55675;BME280;41562;44.330;23.802;2023-07-02T04:33:49;99313.41;;;22.48;100.00
55675;BME280;41562;44.330;23.802;2023-07-02T04:36:16;99322.31;;;22.45;100.00
55675;BME280;41562;44.330;23.802;2023-07-02T04:38:45;99322.91;;;22.28;100.00
55675;BME280;41562;44.330;23.802;2023-07-02T04:41:12;99325.72;;;22.35;100.00
55675;BME280;41562;44.330;23.802;2023-07-02T04:43:40;99333.88;;;22.35;100.00
55675;BME280;41562;44.330;23.802;2023-07-02T04:46:08;99337.31;;;22.28;100.00
55675;BME280;41562;44.330;23.802;2023-07-02T04:48:36;99344.84;;;22.09;100.00
55675;BME280;41562;44.330;23.802;2023-07-02T04:51:04;99341.66;;;22.03;100.00
55675;BME280;41562;44.330;23.802;2023-07-02T04:53:31;99335.56;;;22.13;100.00
55675;BME280;41562;44.330;23.802;2023-07-02T04:56:00;99342.47;;;22.07;100.00
55675;BME280;41562;44.330;23.802;2023-07-02T04:58:27;99346.69;;;22.01;100.00
55675;BME280;41562;44.330;23.802;2023-07-02T05:00:57;99351.63;;;22.22;100.00
55675;BME280;41562;44.330;23.802;2023-07-02T05:03:27;99359.56;;;22.34;100.00
55675;BME280;41562;44.330;23.802;2023-07-02T05:05:56;99361.94;;;22.39;100.00
55675;BME280;41562;44.330;23.802;2023-07-02T05:08:26;99369.88;;;22.51;100.00
55675;BME280;41562;44.330;23.802;2023-07-02T05:10:54;99362.53;;;22.55;100.00
55675;BME280;41562;44.330;23.802;2023-07-02T05:13:23;99364.72;;;22.42;100.00
55675;BME280;41562;44.330;23.802;2023-07-02T05:15:55;99364.41;;;22.51;100.00
55675;BME280;41562;44.330;23.802;2023-07-02T05:18:24;99369.38;;;22.42;100.00
55675;BME280;41562;44.330;23.802;2023-07-02T05:20:53;99374.50;;;22.47;100.00
55675;BME280;41562;44.330;23.802;2023-07-02T05:23:22;99361.56;;;22.37;100.00
55675;BME280;41562;44.330;23.802;2023-07-02T05:25:51;99362.44;;;22.48;100.00
55675;BME280;41562;44.330;23.802;2023-07-02T05:28:20;99375.38;;;22.55;100.00
55675;BME280;41562;44.330;23.802;2023-07-02T05:30:49;99369.22;;;22.28;100.00
55675;BME280;41562;44.330;23.802;2023-07-02T05:33:17;99373.97;;;22.34;100.00
55675;BME280;41562;44.330;23.802;2023-07-02T05:35:45;99377.94;;;22.40;100.00
55675;BME280;41562;44.330;23.802;2023-07-02T05:38:14;99378.69;;;22.37;100.00
55675;BME280;41562;44.330;23.802;2023-07-02T05:40:44;99375.16;;;22.37;100.00
55675;BME280;41562;44.330;23.802;2023-07-02T05:43:27;99373.59;;;22.36;100.00
55675;BME280;41562;44.330;23.802;2023-07-02T05:45:57;99381.97;;;22.54;100.00
55675;BME280;41562;44.330;23.802;2023-07-02T05:48:26;99379.16;;;22.46;100.00
55675;BME280;41562;44.330;23.802;2023-07-02T05:50:54;99378.28;;;22.39;99.79
55675;BME280;41562;44.330;23.802;2023-07-02T05:53:24;99377.47;;;22.35;100.00
55675;BME280;41562;44.330;23.802;2023-07-02T05:55:51;99375.31;;;22.18;100.00
55675;BME280;41562;44.330;23.802;2023-07-02T05:58:19;99377.75;;;22.26;100.00
55675;BME280;41562;44.330;23.802;2023-07-02T06:00:58;99377.38;;;22.28;100.00
55675;BME280;41562;44.330;23.802;2023-07-02T06:03:25;99385.06;;;22.19;100.00
55675;BME280;41562;44.330;23.802;2023-07-02T06:05:52;99383.13;;;22.19;100.00
55675;BME280;41562;44.330;23.802;2023-07-02T06:08:20;99385.66;;;22.35;100.00
55675;BME280;41562;44.330;23.802;2023-07-02T06:10:48;99392.59;;;22.32;100.00
55675;BME280;41562;44.330;23.802;2023-07-02T06:13:17;99402.00;;;22.35;99.32
55675;BME280;41562;44.330;23.802;2023-07-02T06:15:45;99401.91;;;22.28;98.80
55675;BME280;41562;44.330;23.802;2023-07-02T06:18:13;99403.13;;;22.34;99.36
55675;BME280;41562;44.330;23.802;2023-07-02T06:20:41;99407.22;;;22.17;99.45
55675;BME280;41562;44.330;23.802;2023-07-02T06:23:09;99406.63;;;22.31;99.80
55675;BME280;41562;44.330;23.802;2023-07-02T06:25:37;99417.50;;;22.31;99.71
55675;BME280;41562;44.330;23.802;2023-07-02T06:28:04;99420.16;;;22.27;98.96
55675;BME280;41562;44.330;23.802;2023-07-02T06:30:32;99415.94;;;22.30;98.72
55675;BME280;41562;44.330;23.802;2023-07-02T06:32:59;99413.72;;;22.39;99.02
55675;BME280;41562;44.330;23.802;2023-07-02T06:35:31;99416.50;;;22.42;99.56
55675;BME280;41562;44.330;23.802;2023-07-02T06:37:59;99424.69;;;22.46;99.88
55675;BME280;41562;44.330;23.802;2023-07-02T06:40:28;99424.47;;;22.58;98.80
55675;BME280;41562;44.330;23.802;2023-07-02T06:42:56;99419.44;;;22.60;99.09
55675;BME280;41562;44.330;23.802;2023-07-02T06:45:24;99404.22;;;22.59;99.33
55675;BME280;41562;44.330;23.802;2023-07-02T06:47:52;99408.56;;;22.64;98.98
55675;BME280;41562;44.330;23.802;2023-07-02T06:50:23;99415.97;;;22.63;98.78
55675;BME280;41562;44.330;23.802;2023-07-02T06:52:50;99415.19;;;22.63;99.20
55675;BME280;41562;44.330;23.802;2023-07-02T06:55:18;99415.22;;;22.66;99.31
55675;BME280;41562;44.330;23.802;2023-07-02T06:57:46;99410.84;;;22.58;100.00
55675;BME280;41562;44.330;23.802;2023-07-02T07:00:14;99412.00;;;22.57;100.00
55675;BME280;41562;44.330;23.802;2023-07-02T07:02:42;99406.16;;;22.59;100.00
55675;BME280;41562;44.330;23.802;2023-07-02T07:05:10;99412.50;;;22.66;99.88
55675;BME280;41562;44.330;23.802;2023-07-02T07:07:38;99416.38;;;22.65;99.99
55675;BME280;41562;44.330;23.802;2023-07-02T07:10:06;99422.59;;;22.62;100.00
55675;BME280;41562;44.330;23.802;2023-07-02T07:12:34;99419.94;;;22.69;100.00
55675;BME280;41562;44.330;23.802;2023-07-02T07:15:02;99428.06;;;22.66;100.00
55675;BME280;41562;44.330;23.802;2023-07-02T07:17:29;99426.19;;;22.70;100.00
55675;BME280;41562;44.330;23.802;2023-07-02T07:19:57;99422.00;;;22.76;100.00
55675;BME280;41562;44.330;23.802;2023-07-02T07:22:24;99425.50;;;23.13;100.00
55675;BME280;41562;44.330;23.802;2023-07-02T07:24:52;99423.38;;;23.33;100.00
55675;BME280;41562;44.330;23.802;2023-07-02T07:27:19;99442.78;;;23.28;100.00
55675;BME280;41562;44.330;23.802;2023-07-02T07:29:47;99443.19;;;23.27;100.00
55675;BME280;41562;44.330;23.802;2023-07-02T07:32:15;99432.91;;;23.53;100.00
55675;BME280;41562;44.330;23.802;2023-07-02T07:34:42;99442.75;;;23.61;100.00
55675;BME280;41562;44.330;23.802;2023-07-02T07:37:10;99440.72;;;24.06;99.42
55675;BME280;41562;44.330;23.802;2023-07-02T07:39:44;99441.09;;;24.01;100.00
55675;BME280;41562;44.330;23.802;2023-07-02T07:42:14;99445.66;;;23.83;100.00
55675;BME280;41562;44.330;23.802;2023-07-02T07:44:41;99443.84;;;24.04;100.00
55675;BME280;41562;44.330;23.802;2023-07-02T07:47:09;99439.69;;;24.21;100.00
55675;BME280;41562;44.330;23.802;2023-07-02T07:49:36;99446.47;;;23.90;100.00
55675;BME280;41562;44.330;23.802;2023-07-02T07:52:04;99445.88;;;24.15;100.00
55675;BME280;41562;44.330;23.802;2023-07-02T07:54:33;99433.09;;;24.29;100.00
55675;BME280;41562;44.330;23.802;2023-07-02T07:57:02;99431.22;;;24.40;100.00
55675;BME280;41562;44.330;23.802;2023-07-02T07:59:30;99435.50;;;24.45;100.00
55675;BME280;41562;44.330;23.802;2023-07-02T08:01:57;99429.97;;;24.34;100.00
55675;BME280;41562;44.330;23.802;2023-07-02T08:04:24;99437.44;;;24.37;100.00
55675;BME280;41562;44.330;23.802;2023-07-02T08:06:52;99433.00;;;24.91;100.00
55675;BME280;41562;44.330;23.802;2023-07-02T08:09:20;99435.91;;;24.47;97.06
55675;BME280;41562;44.330;23.802;2023-07-02T08:11:48;99433.97;;;24.51;100.00
55675;BME280;41562;44.330;23.802;2023-07-02T08:14:18;99439.63;;;24.90;100.00
55675;BME280;41562;44.330;23.802;2023-07-02T08:16:48;99440.38;;;24.83;98.23
55675;BME280;41562;44.330;23.802;2023-07-02T08:19:16;99438.56;;;25.48;100.00
55675;BME280;41562;44.330;23.802;2023-07-02T08:21:43;99436.53;;;25.06;100.00
55675;BME280;41562;44.330;23.802;2023-07-02T08:24:14;99429.09;;;24.96;100.00
55675;BME280;41562;44.330;23.802;2023-07-02T08:26:41;99435.00;;;25.19;100.00
55675;BME280;41562;44.330;23.802;2023-07-02T08:29:08;99433.00;;;24.91;100.00
55675;BME280;41562;44.330;23.802;2023-07-02T08:31:36;99433.00;;;24.91;97.34
55675;BME280;41562;44.330;23.802;2023-07-02T08:34:04;99432.84;;;24.66;99.91
55675;BME280;41562;44.330;23.802;2023-07-02T08:36:31;99435.22;;;24.68;100.00
55675;BME280;41562;44.330;23.802;2023-07-02T08:39:01;99431.25;;;24.51;98.00
55675;BME280;41562;44.330;23.802;2023-07-02T08:41:30;99435.09;;;24.43;98.81
55675;BME280;41562;44.330;23.802;2023-07-02T08:43:59;99429.97;;;24.34;100.00
55675;BME280;41562;44.330;23.802;2023-07-02T08:46:27;99423.00;;;24.48;100.00
55675;BME280;41562;44.330;23.802;2023-07-02T08:48:55;99431.75;;;24.81;100.00
55675;BME280;41562;44.330;23.802;2023-07-02T08:51:23;99424.00;;;24.94;100.00
55675;BME280;41562;44.330;23.802;2023-07-02T08:53:51;99435.78;;;25.16;97.77
55675;BME280;41562;44.330;23.802;2023-07-02T08:56:18;99433.06;;;25.37;97.55
55675;BME280;41562;44.330;23.802;2023-07-02T08:58:49;99436.50;;;24.95;97.06
55675;BME280;41562;44.330;23.802;2023-07-02T09:01:16;99441.56;;;24.93;99.58
55675;BME280;41562;44.330;23.802;2023-07-02T09:03:44;99427.47;;;24.84;98.60
55675;BME280;41562;44.330;23.802;2023-07-02T09:06:13;99429.88;;;25.10;98.31
55675;BME280;41562;44.330;23.802;2023-07-02T09:08:44;99437.56;;;24.73;98.67
55675;BME280;41562;44.330;23.802;2023-07-02T09:11:13;99431.75;;;24.85;97.90
55675;BME280;41562;44.330;23.802;2023-07-02T09:13:52;99429.41;;;24.83;98.27
55675;BME280;41562;44.330;23.802;2023-07-02T09:16:24;99432.84;;;24.63;99.04
55675;BME280;41562;44.330;23.802;2023-07-02T09:19:02;99426.19;;;24.53;99.01
55675;BME280;41562;44.330;23.802;2023-07-02T09:21:44;99429.31;;;24.52;99.08
55675;BME280;41562;44.330;23.802;2023-07-02T09:24:22;99428.47;;;24.48;99.88
55675;BME280;41562;44.330;23.802;2023-07-02T09:26:52;99425.41;;;24.60;98.43
55675;BME280;41562;44.330;23.802;2023-07-02T09:29:33;99420.63;;;24.32;100.00
55675;BME280;41562;44.330;23.802;2023-07-02T09:32:03;99426.94;;;24.47;99.44
55675;BME280;41562;44.330;23.802;2023-07-02T09:34:38;99419.91;;;24.46;98.93
55675;BME280;41562;44.330;23.802;2023-07-02T09:37:06;99420.66;;;24.42;99.90
55675;BME280;41562;44.330;23.802;2023-07-02T09:39:36;99416.31;;;24.27;100.00
55675;BME280;41562;44.330;23.802;2023-07-02T09:42:07;99417.06;;;24.24;100.00
55675;BME280;41562;44.330;23.802;2023-07-02T09:44:36;99418.09;;;24.09;100.00
55675;BME280;41562;44.330;23.802;2023-07-02T09:47:08;99419.28;;;24.08;100.00
55675;BME280;41562;44.330;23.802;2023-07-02T09:49:38;99419.63;;;24.03;100.00
55675;BME280;41562;44.330;23.802;2023-07-02T09:52:10;99411.88;;;24.16;97.65
55675;BME280;41562;44.330;23.802;2023-07-02T09:54:38;99422.88;;;24.19;95.26
55675;BME280;41562;44.330;23.802;2023-07-02T09:57:06;99426.41;;;24.23;94.65
55675;BME280;41562;44.330;23.802;2023-07-02T09:59:34;99425.81;;;24.62;93.97
55675;BME280;41562;44.330;23.802;2023-07-02T10:02:01;99416.47;;;24.73;91.81
55675;BME280;41562;44.330;23.802;2023-07-02T10:04:39;99428.25;;;24.84;91.42
55675;BME280;41562;44.330;23.802;2023-07-02T10:07:08;99424.38;;;24.89;89.98
55675;BME280;41562;44.330;23.802;2023-07-02T10:09:36;99421.22;;;24.87;90.35
55675;BME280;41562;44.330;23.802;2023-07-02T10:14:58;99421.28;;;25.01;89.13
55675;BME280;41562;44.330;23.802;2023-07-02T10:17:34;99418.84;;;24.85;91.07
55675;BME280;41562;44.330;23.802;2023-07-02T10:20:05;99418.91;;;24.93;90.59
55675;BME280;41562;44.330;23.802;2023-07-02T10:22:47;99423.63;;;24.96;89.26
55675;BME280;41562;44.330;23.802;2023-07-02T10:25:26;99419.72;;;25.00;90.10
55675;BME280;41562;44.330;23.802;2023-07-02T10:27:54;99415.44;;;25.03;89.68
55675;BME280;41562;44.330;23.802;2023-07-02T10:30:36;99420.50;;;25.01;89.96
55675;BME280;41562;44.330;23.802;2023-07-02T10:33:12;99411.09;;;24.98;90.22
55675;BME280;41562;44.330;23.802;2023-07-02T10:35:42;99415.78;;;24.94;90.65
55675;BME280;41562;44.330;23.802;2023-07-02T10:38:25;99420.13;;;25.09;88.60
55675;BME280;41562;44.330;23.802;2023-07-02T10:40:54;99413.13;;;25.22;88.32
55675;BME280;41562;44.330;23.802;2023-07-02T10:43:30;99415.09;;;25.33;87.20
55675;BME280;41562;44.330;23.802;2023-07-02T10:45:58;99411.56;;;25.32;87.00
55675;BME280;41562;44.330;23.802;2023-07-02T10:48:28;99419.38;;;25.37;86.58
55675;BME280;41562;44.330;23.802;2023-07-02T10:50:56;99413.13;;;25.33;84.69
55675;BME280;41562;44.330;23.802;2023-07-02T10:53:24;99410.78;;;25.35;86.30
55675;BME280;41562;44.330;23.802;2023-07-02T10:55:56;99408.84;;;25.29;86.34
55675;BME280;41562;44.330;23.802;2023-07-02T10:58:26;99404.13;;;25.26;86.86
55675;BME280;41562;44.330;23.802;2023-07-02T11:00:53;99395.13;;;25.25;88.07
55675;BME280;41562;44.330;23.802;2023-07-02T11:03:23;99397.88;;;25.29;86.95
55675;BME280;41562;44.330;23.802;2023-07-02T11:05:51;99395.13;;;25.43;86.32
55675;BME280;41562;44.330;23.802;2023-07-02T11:08:20;99397.88;;;25.50;86.35
55675;BME280;41562;44.330;23.802;2023-07-02T11:10:48;99391.63;;;25.46;86.24
55675;BME280;41562;44.330;23.802;2023-07-02T11:13:17;99400.59;;;25.43;85.97
55675;BME280;41562;44.330;23.802;2023-07-02T11:15:50;99406.09;;;25.43;84.86
55675;BME280;41562;44.330;23.802;2023-07-02T11:18:19;99387.69;;;25.36;85.41
55675;BME280;41562;44.330;23.802;2023-07-02T11:20:47;99391.63;;;25.39;83.76
55675;BME280;41562;44.330;23.802;2023-07-02T11:23:23;99391.63;;;25.46;83.35
55675;BME280;41562;44.330;23.802;2023-07-02T11:25:58;99389.66;;;25.43;84.13
55675;BME280;41562;44.330;23.802;2023-07-02T11:28:27;99401.00;;;25.38;84.77
55675;BME280;41562;44.330;23.802;2023-07-02T11:30:55;99402.56;;;25.53;84.20
55675;BME280;41562;44.330;23.802;2023-07-02T11:33:35;99391.63;;;25.53;85.49
55675;BME280;41562;44.330;23.802;2023-07-02T11:36:04;99391.25;;;25.58;85.33
55675;BME280;41562;44.330;23.802;2023-07-02T11:38:36;99379.50;;;25.68;83.81
55675;BME280;41562;44.330;23.802;2023-07-02T11:41:04;99384.19;;;25.68;83.56
55675;BME280;41562;44.330;23.802;2023-07-02T11:43:32;99379.91;;;25.70;84.74
55675;BME280;41562;44.330;23.802;2023-07-02T11:46:00;99386.13;;;25.74;84.12
55675;BME280;41562;44.330;23.802;2023-07-02T11:48:27;99377.53;;;25.90;84.08
55675;BME280;41562;44.330;23.802;2023-07-02T11:50:55;99375.19;;;25.81;84.08
55675;BME280;41562;44.330;23.802;2023-07-02T11:53:23;99379.09;;;25.87;82.79
55675;BME280;41562;44.330;23.802;2023-07-02T11:55:50;99379.47;;;25.89;83.03
55675;BME280;41562;44.330;23.802;2023-07-02T11:58:18;99379.06;;;25.98;82.09
55675;BME280;41562;44.330;23.802;2023-07-02T12:00:47;99379.88;;;25.88;82.03
55675;BME280;41562;44.330;23.802;2023-07-02T12:03:14;99384.56;;;25.80;82.11
55675;BME280;41562;44.330;23.802;2023-07-02T12:05:42;99380.69;;;25.67;81.80
55675;BME280;41562;44.330;23.802;2023-07-02T12:08:09;99376.78;;;25.65;82.75
55675;BME280;41562;44.330;23.802;2023-07-02T12:10:37;99389.66;;;25.53;83.92
55675;BME280;41562;44.330;23.802;2023-07-02T12:13:05;99383.78;;;25.44;84.06
55675;BME280;41562;44.330;23.802;2023-07-02T12:15:32;99388.09;;;25.49;84.99
55675;BME280;41562;44.330;23.802;2023-07-02T12:18:00;99396.72;;;25.47;83.84
55675;BME280;41562;44.330;23.802;2023-07-02T12:20:28;99391.63;;;25.39;84.18
55675;BME280;41562;44.330;23.802;2023-07-02T12:22:56;99386.13;;;25.32;84.92
55675;BME280;41562;44.330;23.802;2023-07-02T12:25:27;99379.91;;;25.35;85.84
55675;BME280;41562;44.330;23.802;2023-07-02T12:27:55;99384.97;;;25.36;85.06
55675;BME280;41562;44.330;23.802;2023-07-02T12:30:22;99382.22;;;25.36;85.52
55675;BME280;41562;44.330;23.802;2023-07-02T12:32:50;99378.31;;;25.34;86.54
55675;BME280;41562;44.330;23.802;2023-07-02T12:35:17;99378.69;;;25.36;87.22
55675;BME280;41562;44.330;23.802;2023-07-02T12:37:47;99375.56;;;25.37;86.57
55675;BME280;41562;44.330;23.802;2023-07-02T12:40:15;99380.66;;;25.39;86.59
55675;BME280;41562;44.330;23.802;2023-07-02T12:42:46;99375.22;;;25.35;87.09
55675;BME280;41562;44.330;23.802;2023-07-02T12:45:14;99372.84;;;25.34;88.19
55675;BME280;41562;44.330;23.802;2023-07-02T12:47:44;99375.97;;;25.29;87.82
55675;BME280;41562;44.330;23.802;2023-07-02T12:50:12;99374.41;;;25.24;88.22
55675;BME280;41562;44.330;23.802;2023-07-02T12:52:42;99372.06;;;25.30;86.76
55675;BME280;41562;44.330;23.802;2023-07-02T12:55:14;99372.44;;;25.32;87.73
55675;BME280;41562;44.330;23.802;2023-07-02T12:57:45;99369.72;;;25.39;88.63
55675;BME280;41562;44.330;23.802;2023-07-02T13:00:12;99362.28;;;25.39;87.49
55675;BME280;41562;44.330;23.802;2023-07-02T13:02:41;99377.16;;;25.35;86.00
55675;BME280;41562;44.330;23.802;2023-07-02T13:05:30;99369.72;;;25.42;87.68
55675;BME280;41562;44.330;23.802;2023-07-02T13:08:19;99375.19;;;25.32;86.19
55675;BME280;41562;44.330;23.802;2023-07-02T13:10:47;99372.06;;;25.33;87.38
55675;BME280;41562;44.330;23.802;2023-07-02T13:13:15;99362.31;;;25.29;86.68
55675;BME280;41562;44.330;23.802;2023-07-02T13:15:50;99359.56;;;25.29;88.35
55675;BME280;41562;44.330;23.802;2023-07-02T13:18:18;99362.28;;;25.43;87.75
55675;BME280;41562;44.330;23.802;2023-07-02T13:20:50;99357.59;;;25.36;87.32
55675;BME280;41562;44.330;23.802;2023-07-02T13:23:18;99350.16;;;25.44;89.16
55675;BME280;41562;44.330;23.802;2023-07-02T13:25:45;99351.31;;;25.50;87.25
55675;BME280;41562;44.330;23.802;2023-07-02T13:28:13;99340.75;;;25.55;86.96
55675;BME280;41562;44.330;23.802;2023-07-02T13:30:40;99333.72;;;25.51;87.62
55675;BME280;41562;44.330;23.802;2023-07-02T13:33:08;99347.03;;;25.77;86.41
55675;BME280;41562;44.330;23.802;2023-07-02T13:35:36;99341.97;;;25.65;85.27
55675;BME280;41562;44.330;23.802;2023-07-02T13:38:03;99336.50;;;25.58;87.46
55675;BME280;41562;44.330;23.802;2023-07-02T13:40:32;99342.31;;;25.56;88.10
55675;BME280;41562;44.330;23.802;2023-07-02T13:43:00;99340.00;;;25.62;87.55
55675;BME280;41562;44.330;23.802;2023-07-02T13:45:32;99342.31;;;25.74;87.59
55675;BME280;41562;44.330;23.802;2023-07-02T13:48:00;99348.19;;;25.69;86.60
55675;BME280;41562;44.330;23.802;2023-07-02T13:50:28;99344.31;;;25.63;88.41
55675;BME280;41562;44.330;23.802;2023-07-02T13:53:04;99342.31;;;25.56;90.21
55675;BME280;41562;44.330;23.802;2023-07-02T13:55:36;99343.91;;;25.54;90.81
55675;BME280;41562;44.330;23.802;2023-07-02T13:58:05;99344.69;;;25.51;91.56
55675;BME280;41562;44.330;23.802;2023-07-02T14:00:33;99349.75;;;25.56;91.00
55675;BME280;41562;44.330;23.802;2023-07-02T14:03:01;99345.44;;;25.55;89.35
55675;BME280;41562;44.330;23.802;2023-07-02T14:05:30;99340.00;;;25.62;90.72
55675;BME280;41562;44.330;23.802;2023-07-02T14:07:57;99347.81;;;25.71;90.85
55675;BME280;41562;44.330;23.802;2023-07-02T14:10:25;99341.16;;;25.86;91.60
55675;BME280;41562;44.330;23.802;2023-07-02T14:13:00;99338.78;;;25.81;89.25